Jump to content

FlyingAggie

Supporter
  • Content Count

    267
  • Joined

  • Last visited

Community Reputation

1 Neutral

About FlyingAggie

  • Rank
    Senior Member

Profile Information

  • Gender
    Not Telling
  • Reg #
    N262MB
  • Model
    M20K

Recent Profile Visitors

The recent visitors block is disabled and is not being shown to other users.

  1. Official TCM Overhaul Manual for most variants of the TSIO-360 Turbo Charged Six Cylinder Engine, including the -GB, -LB, -MB and -SB engines used in M20K's. FAA Approved October 1997 edition. Purchased from Aircraft Spruce and in excellent condition--no greasy finger prints, blood splatters or coffee stains. SALE $50 for reference https://www.aircraftspruce.com/catalog/eppages/continentalnewmanuals_07-10284.php?clickkey=7889118 List ($201) but not in stock
  2. Thanks Carusoam. For the last month I have been asking myself "What have I done?" Feeling like I have lost someone really dear.
  3. @FJC I have a PowerTow Thundervolt with Mooney adapter for sale.
  4. SOLD TO A NEW BONANZA OWNER 4/24/2021 Changing family priorities, like building my wife's mountain dream home inorder to be close to our grandchildren, but 60 miles away from my hangar and my wife joining me in retirement this year has prompted the sale of my Mooney. The sale closed last Friday. The new owner (Jay) has flown N262MB more in the first three days of his ownership than I flew all last year! I am sure he will take good care of her as he commutes weekly between Texas and California. I have encouraged him to participate on MS. Anyway, I have a bunch of aviation stuff th
  5. I would like a name tag too. Planning to arrive Friday afternoon or Saturday morning and staying till Thursday or Friday. Alan "FlyAggie" Higgins N262MB
  6. Marauder, Thanks for the link. I had been there before, been looking for the MFG for a couple of months. Someone still makes them for Mooney. Did you see my PM to you?
  7. The patent info wasn't that helpful in locating the manufacturer http://www.google.com/patents/US4148002
  8. It is your picture and I copied it from a previous post in this thread. Yes, I am trying to find a source of theses switches. Where did you buy your your set?
  9. Does anyone know the make and model of the lower switch? The upper one is a Klixon model 20TC used in the late 70's Mooney's. The lower one is used in later Mooney's. I thought it was also a Klixon, but can't find anything that looks like it.
  10. A similar question was posed to the Mooney Rep at the Mooney Owner Forum on Wednesday afternoon about refurbishing older Mooneys. He did acknowledge that was something they were looking at not really some much as a business line but as a means to restart their customer service operations. He was pretty noncommittal on any details.
  11. You are invited to attend a Mooney Ambassador “get together” at the Rocky Mountain Airshow and Fly-in being held at Denver’s Rocky Mountain Metro Airport (KBJC) on August 16th, 17th and 18th. Here is a link to the Airshow’s Home Page. http://www.cosportaviation.org/home.html The Mooney Ambassador event will be extremely low key, but a great reason for flying your Mooney to the mile high city, hangar flying with other Mooney Pilots, watching the airshow from the ramp and explaining the benefits of General Aviation to the public and of course brag a little about our Mooney’s! You and you
  12. This afternoon I did my first IPC and it was a little windy at BJC: KBJC 160245Z 24017G23KT 30SM FEW080 BKN150 BKN200 18/M10 A2992 KBJC 160148Z 24019G26KT 30SM FEW080 BKN150 BKN200 18/M11 A2992 KBJC 160045Z 23009G14KT 50SM FEW080 BKN150 BKN200 19/M11 A2991 KBJC 152345Z 27015G21KT 50SM SCT080 BKN150 BKN200 20/M11 A2991 KBJC 152247Z 26020G26KT 60SM SCT080 BKN140 OVC220 22/M12 A2991 KBJC 152158Z 26020G30KT 50SM SCT080 SCT120 BKN200 23/M13 A2991 KBJC 152048Z 25020G26KT 50SM SCT080 SCT120 BKN200 25/M14 A2992 KBJC 151945Z 00000KT 50SM FEW080 SCT120 BKN200 22/M13 A2994 In fact a Nav
  13. Attached is a pdf showing some screen shots and comments from playing around with Garmin Pilot on the iPad. (Sorry I didn't see an easy way of merging screen shots in with text.) Edit: I am unable to attach the pdf. I'll try another appraoch.
×
×
  • Create New...

Important Information

We have placed cookies on your device to help make this website better. You can adjust your cookie settings, otherwise we'll assume you're okay to continue.